Time;durP1;ratioP1;P1;durP2;ratioP2;P2;SDS_P1;SDS_P2;PMS_P1;PMS_P2;Temp;Humidity;BMP_temperature;BMP_pressure;BME280_temperature;BME280_humidity;BME280_pressure;Samples;Min_cycle;Max_cycle;Signal;HPM_P1;HPM_P2
2021/12/17 00:01:05;;;;;;;25.88;6.78;;;5.40;99.90;;;;;;2629797;54;20046;-77
2021/12/17 00:03:43;;;;;;;22.75;6.85;;;5.30;99.90;;;;;;2630339;54;20034;-78
2021/12/17 00:06:40;;;;;;;28.95;8.13;;;5.30;99.90;;;;;;2629849;54;20010;-77
2021/12/17 00:09:14;;;;;;;25.02;6.40;;;5.40;99.90;;;;;;2630317;54;20017;-76
2021/12/17 00:11:49;;;;;;;23.33;6.63;;;5.30;99.90;;;;;;2629905;54;20541;-79
2021/12/17 00:14:26;;;;;;;24.45;6.40;;;5.30;99.90;;;;;;2630581;54;20015;-78
2021/12/17 00:17:07;;;;;;;24.80;7.07;;;5.30;99.90;;;;;;2631872;39;20436;-76
2021/12/17 00:19:58;;;;;;;25.73;7.40;;;5.30;99.90;;;;;;2630347;54;20026;-78
2021/12/17 00:50:36;;;;;;;28.58;8.00;;;5.30;99.90;;;;;;2630059;54;20125;-77
2021/12/17 00:53:08;;;;;;;21.75;7.65;;;5.30;99.90;;;;;;2630612;54;20022;-76
2021/12/17 00:55:41;;;;;;;20.23;6.53;;;5.40;99.90;;;;;;2630245;54;20039;-77
2021/12/17 00:58:15;;;;;;;21.08;6.57;;;5.20;99.90;;;;;;2624813;54;20030;-81
2021/12/17 01:00:47;;;;;;;31.00;8.55;;;5.30;99.90;;;;;;2630526;54;20022;-79
2021/12/17 01:03:19;;;;;;;25.65;7.05;;;5.30;99.90;;;;;;2630677;54;20067;-76
2021/12/17 01:05:55;;;;;;;21.58;7.50;;;5.20;99.90;;;;;;2630772;54;20051;-80
2021/12/17 01:08:26;;;;;;;28.48;8.30;;;5.30;99.90;;;;;;2630640;54;20030;-78
2021/12/17 01:11:14;;;;;;;38.90;9.27;;;5.30;99.90;;;;;;2630621;54;20042;-77
2021/12/17 01:14:12;;;;;;;24.88;8.07;;;5.30;99.90;;;;;;2630074;54;20044;-77
2021/12/17 01:17:06;;;;;;;29.27;7.32;;;5.30;99.90;;;;;;2630712;54;20017;-78
2021/12/17 01:20:13;;;;;;;25.15;7.72;;;5.30;99.90;;;;;;2630768;54;20014;-78
2021/12/17 01:22:54;;;;;;;21.05;7.47;;;5.30;99.90;;;;;;2631198;54;20095;-79
2021/12/17 01:35:32;;;;;;;24.60;8.25;;;5.20;99.90;;;;;;2631238;54;20041;-78
2021/12/17 01:41:47;;;;;;;19.90;7.05;;;5.30;99.90;;;;;;2631560;54;20010;-80
2021/12/17 01:44:19;;;;;;;23.25;8.20;;;5.20;99.90;;;;;;2631230;54;20030;-77
2021/12/17 01:47:01;;;;;;;19.40;6.75;;;5.20;99.90;;;;;;2646940;46;20030;-78
2021/12/17 02:00:49;;;;;;;22.35;7.50;;;5.20;99.90;;;;;;2634644;46;20067;-79
2021/12/17 02:05:55;;;;;;;26.02;6.32;;;5.20;99.90;;;;;;2631170;54;20035;-78
2021/12/17 02:08:28;;;;;;;21.25;6.38;;;5.20;99.90;;;;;;2631164;54;20034;-77
2021/12/17 02:20:10;;;;;;;16.13;5.63;;;5.30;99.90;;;;;;2630966;54;20019;-78
2021/12/17 02:31:23;;;;;;;26.33;6.68;;;5.10;99.90;;;;;;2633361;46;20040;-77
2021/12/17 02:36:32;;;;;;;15.60;5.60;;;5.20;99.90;;;;;;2631210;39;20440;-77
2021/12/17 02:39:35;;;;;;;27.27;6.97;;;5.20;99.90;;;;;;2630841;54;20033;-78
2021/12/17 02:42:34;;;;;;;;;;;5.20;99.90;;;;;;2630953;54;20014;-77
2021/12/17 02:47:49;;;;;;;20.98;7.53;;;5.20;99.90;;;;;;2635845;46;20014;-77
2021/12/17 02:50:22;;;;;;;23.80;5.80;;;5.20;99.90;;;;;;2630798;54;20027;-78
2021/12/17 02:52:53;;;;;;;22.02;6.68;;;5.20;99.90;;;;;;2632180;46;20113;-78
2021/12/17 02:55:28;;;;;;;19.85;6.32;;;5.10;99.90;;;;;;2631087;54;20070;-78
2021/12/17 02:58:01;;;;;;;21.10;6.32;;;5.20;99.90;;;;;;2630691;54;20041;-77
2021/12/17 03:00:32;;;;;;;19.42;5.63;;;5.20;99.90;;;;;;2630874;54;20011;-79
2021/12/17 03:03:09;;;;;;;24.52;6.20;;;5.20;99.90;;;;;;2631326;54;20031;-77
2021/12/17 03:05:41;;;;;;;22.33;5.78;;;5.20;99.90;;;;;;2631076;54;20082;-79
2021/12/17 03:08:20;;;;;;;25.70;6.05;;;5.20;99.90;;;;;;2631372;54;20577;-76
2021/12/17 03:10:54;;;;;;;22.90;5.65;;;5.20;99.90;;;;;;2631064;54;20031;-80
2021/12/17 03:13:32;;;;;;;17.35;5.63;;;5.20;99.90;;;;;;2630961;54;20010;-78
2021/12/17 03:16:09;;;;;;;19.85;5.45;;;5.30;99.90;;;;;;2631019;54;20011;-78
2021/12/17 03:24:07;;;;;;;19.30;5.95;;;5.20;99.90;;;;;;2630998;54;20055;-77
2021/12/17 03:26:42;;;;;;;26.90;5.78;;;5.20;99.90;;;;;;2630686;54;20038;-76
2021/12/17 03:29:14;;;;;;;16.83;5.60;;;5.20;99.90;;;;;;2630555;54;20072;-78
2021/12/17 03:31:50;;;;;;;23.20;5.90;;;5.20;99.90;;;;;;2630581;54;20549;-77
2021/12/17 03:34:23;;;;;;;23.90;6.13;;;5.20;99.90;;;;;;2630581;54;20017;-77
2021/12/17 03:36:58;;;;;;;24.45;5.97;;;5.20;99.90;;;;;;2630245;54;20014;-77
2021/12/17 03:39:38;;;;;;;21.42;5.57;;;5.20;99.90;;;;;;2630522;54;20027;-77
2021/12/17 03:42:26;;;;;;;30.33;5.72;;;5.20;99.90;;;;;;2630621;54;20026;-76
2021/12/17 03:45:01;;;;;;;22.20;5.93;;;5.30;99.90;;;;;;2630399;54;20078;-77
2021/12/17 03:47:55;;;;;;;23.00;5.88;;;5.20;99.90;;;;;;2630729;54;20033;-80
2021/12/17 03:50:33;;;;;;;18.25;5.75;;;5.20;99.90;;;;;;2656359;31;20503;-77
2021/12/17 03:53:04;;;;;;;25.63;5.72;;;5.20;99.90;;;;;;2630672;54;21052;-79
2021/12/17 03:56:05;;;;;;;18.92;5.28;;;5.20;99.90;;;;;;2630494;54;20071;-79
2021/12/17 03:58:42;;;;;;;23.88;5.95;;;5.20;99.90;;;;;;2633887;46;20023;-78
2021/12/17 04:01:13;;;;;;;17.92;6.05;;;5.20;99.90;;;;;;2629836;54;20038;-78
2021/12/17 04:03:47;;;;;;;18.00;7.47;;;5.20;99.90;;;;;;2629811;54;20031;-77
2021/12/17 04:06:36;;;;;;;21.65;5.57;;;5.30;99.90;;;;;;2634247;39;20480;-76
2021/12/17 04:09:09;;;;;;;23.48;6.82;;;5.20;99.90;;;;;;2636852;46;20015;-77
2021/12/17 04:12:12;;;;;;;22.80;5.32;;;5.20;99.90;;;;;;2630094;54;20032;-78
2021/12/17 04:15:08;;;;;;;16.58;5.78;;;5.20;99.90;;;;;;2630109;54;20035;-79
2021/12/17 04:20:14;;;;;;;20.00;5.10;;;5.20;99.90;;;;;;2630751;54;20514;-77
2021/12/17 04:22:46;;;;;;;22.83;5.40;;;5.20;99.90;;;;;;2630684;54;20011;-77
2021/12/17 04:25:19;;;;;;;20.63;5.40;;;5.10;99.90;;;;;;2630586;54;20033;-77
2021/12/17 04:27:51;;;;;;;14.90;5.22;;;5.20;99.90;;;;;;2630280;54;20139;-78
2021/12/17 04:30:28;;;;;;;21.15;6.03;;;5.20;99.90;;;;;;2632379;47;20017;-79
2021/12/17 04:33:00;;;;;;;21.23;6.68;;;5.20;99.90;;;;;;2629933;54;20074;-78
2021/12/17 04:35:34;;;;;;;18.20;5.35;;;5.10;99.90;;;;;;2635801;47;20011;-76
2021/12/17 04:38:10;;;;;;;19.55;5.43;;;5.20;99.90;;;;;;2632374;39;20456;-76
2021/12/17 04:40:44;;;;;;;19.20;5.60;;;5.20;99.90;;;;;;2629886;54;20023;-77
2021/12/17 04:43:31;;;;;;;18.60;6.00;;;5.20;99.90;;;;;;2629552;54;20037;-76
2021/12/17 04:46:18;;;;;;;14.60;5.80;;;5.20;99.90;;;;;;2629618;54;20070;-76
2021/12/17 04:57:26;;;;;;;19.85;5.25;;;5.20;99.90;;;;;;2635598;31;20501;-79
2021/12/17 05:00:01;;;;;;;15.25;6.78;;;5.20;99.90;;;;;;2630348;54;20034;-77
2021/12/17 05:02:41;;;;;;;19.23;5.15;;;5.20;99.90;;;;;;2634074;39;20462;-79
2021/12/17 05:05:16;;;;;;;22.88;5.07;;;5.20;99.90;;;;;;2630827;54;20032;-79
2021/12/17 05:07:55;;;;;;;19.20;5.13;;;5.10;99.90;;;;;;2629914;54;20030;-78
2021/12/17 05:10:43;;;;;;;14.27;4.40;;;5.20;99.90;;;;;;2629385;54;20022;-78
2021/12/17 05:19:02;;;;;;;17.30;5.60;;;5.10;99.90;;;;;;2629933;54;20027;-77
2021/12/17 05:21:37;;;;;;;17.35;4.38;;;5.10;99.90;;;;;;2630311;54;20122;-77
2021/12/17 05:24:09;;;;;;;22.77;4.72;;;5.00;99.90;;;;;;2629161;54;20038;-78
2021/12/17 05:26:40;;;;;;;16.15;4.43;;;5.00;99.90;;;;;;2629969;54;20026;-78
2021/12/17 05:29:12;;;;;;;17.85;4.88;;;5.00;99.90;;;;;;2630598;54;20034;-79
2021/12/17 05:31:46;;;;;;;17.90;4.80;;;5.00;99.90;;;;;;2630067;54;20030;-78
2021/12/17 05:34:22;;;;;;;17.25;4.70;;;5.00;99.90;;;;;;2634502;39;20433;-79
2021/12/17 05:36:59;;;;;;;24.35;5.10;;;5.00;99.90;;;;;;2629972;54;20010;-79
2021/12/17 05:39:37;;;;;;;18.58;5.82;;;5.00;99.90;;;;;;2629561;54;20026;-78
2021/12/17 05:42:11;;;;;;;19.65;5.60;;;5.00;99.90;;;;;;2629482;54;20006;-80
2021/12/17 05:44:55;;;;;;;18.20;3.50;;;5.00;99.90;;;;;;2630323;54;20014;-78
2021/12/17 05:47:28;;;;;;;15.85;4.60;;;4.90;99.90;;;;;;2629751;54;20022;-78
2021/12/17 05:50:07;;;;;;;19.30;4.55;;;4.90;99.90;;;;;;2629815;54;20031;-77
2021/12/17 05:52:39;;;;;;;16.90;4.38;;;4.90;99.90;;;;;;2629991;54;20050;-77
2021/12/17 05:55:16;;;;;;;19.77;4.60;;;5.00;99.90;;;;;;2630511;46;20034;-79
2021/12/17 05:57:48;;;;;;;25.25;5.32;;;5.00;99.90;;;;;;2630716;54;20031;-79
2021/12/17 06:00:20;;;;;;;12.32;4.28;;;5.00;99.90;;;;;;2620719;54;20533;-75
2021/12/17 06:02:54;;;;;;;15.82;3.88;;;4.90;99.90;;;;;;2617070;54;20748;-74
2021/12/17 06:05:49;;;;;;;21.33;5.68;;;4.90;99.90;;;;;;2626036;54;20601;31
2021/12/17 06:08:23;;;;;;;18.02;5.60;;;4.90;99.90;;;;;;2603068;54;20098;31
2021/12/17 06:10:57;;;;;;;15.48;4.50;;;4.90;99.90;;;;;;2605244;54;21329;31
2021/12/17 06:13:29;;;;;;;18.42;4.22;;;4.80;99.90;;;;;;2585227;54;19993;31
2021/12/17 06:16:03;;;;;;;16.35;5.07;;;4.80;99.90;;;;;;2605730;54;20094;31
2021/12/17 06:18:38;;;;;;;16.38;4.57;;;4.80;99.90;;;;;;2613765;54;20019;31
2021/12/17 06:21:21;;;;;;;14.73;4.85;;;4.80;99.90;;;;;;2630785;54;20034;-76
2021/12/17 06:23:53;;;;;;;15.45;4.40;;;4.80;99.90;;;;;;2630481;39;20098;-77
2021/12/17 06:26:26;;;;;;;16.25;4.90;;;4.70;99.90;;;;;;2624781;54;20014;31
2021/12/17 06:31:39;;;;;;;19.50;5.45;;;4.70;99.90;;;;;;2631360;54;20016;-79
2021/12/17 06:34:13;;;;;;;18.23;4.90;;;4.70;99.90;;;;;;2631383;54;20022;-79
2021/12/17 06:36:49;;;;;;;20.48;5.57;;;4.70;99.90;;;;;;2628344;54;20038;31
2021/12/17 06:39:24;;;;;;;11.77;5.13;;;4.80;99.90;;;;;;2625066;54;20011;-78
2021/12/17 06:41:59;;;;;;;15.50;4.90;;;4.80;99.90;;;;;;2612178;54;20085;31
2021/12/17 06:44:34;;;;;;;19.00;4.90;;;4.80;99.90;;;;;;2614388;54;20033;31
2021/12/17 06:47:13;;;;;;;15.65;4.70;;;4.80;99.90;;;;;;2623477;54;20050;-75
2021/12/17 06:54:36;;;;;;;19.10;5.85;;;4.80;99.90;;;;;;2624083;54;20931;31
2021/12/17 06:59:09;;;;;;;21.08;6.18;;;4.90;99.90;;;;;;2630991;54;20015;-78
2021/12/17 07:17:08;;;;;;;19.10;4.75;;;4.90;99.90;;;;;;2624125;54;20984;31
2021/12/17 07:17:41;;;;;;;15.00;3.55;;;4.80;99.90;;;;;;2610774;54;20107;31
2021/12/17 07:23:48;;;;;;;17.00;3.83;;;4.80;99.90;;;;;;2614555;54;20029;-80
2021/12/17 07:40:52;;;;;;;19.08;5.97;;;4.80;99.90;;;;;;2620879;54;20015;-80
2021/12/17 07:43:34;;;;;;;14.57;5.22;;;4.80;99.90;;;;;;2604157;46;20141;31
2021/12/17 07:46:16;;;;;;;18.92;5.68;;;4.80;99.90;;;;;;2611821;54;20022;31
2021/12/17 07:48:50;;;;;;;11.87;5.13;;;4.80;99.90;;;;;;2611287;54;20034;31
2021/12/17 07:51:25;;;;;;;17.80;5.70;;;4.90;99.90;;;;;;2601116;54;20268;31
2021/12/17 07:54:00;;;;;;;13.43;5.28;;;4.80;99.90;;;;;;2624669;46;20473;31
2021/12/17 07:56:44;;;;;;;18.23;4.80;;;4.80;99.90;;;;;;2613202;54;20014;31
2021/12/17 07:59:23;;;;;;;12.30;4.75;;;4.80;99.90;;;;;;2618016;46;20026;31
2021/12/17 08:02:01;;;;;;;23.15;5.55;;;4.80;99.90;;;;;;2603174;54;20030;-78
2021/12/17 08:04:49;;;;;;;15.85;4.63;;;4.80;99.90;;;;;;2591544;54;20077;-78
2021/12/17 08:07:27;;;;;;;12.55;4.63;;;4.80;99.90;;;;;;2612132;54;20027;-77
2021/12/17 08:09:59;;;;;;;18.10;5.10;;;5.00;99.90;;;;;;2585819;54;20021;31
2021/12/17 08:12:32;;;;;;;15.10;5.35;;;5.10;99.90;;;;;;2596519;54;19953;31
2021/12/17 08:15:12;;;;;;;17.60;5.72;;;5.10;99.90;;;;;;2616734;39;20271;31
2021/12/17 08:18:18;;;;;;;16.77;6.40;;;5.10;99.90;;;;;;2602757;54;20124;31
2021/12/17 08:26:39;;;;;;;9.68;4.20;;;5.10;99.90;;;;;;2595491;54;20038;31
2021/12/17 08:29:31;;;;;;;15.98;4.53;;;5.00;99.90;;;;;;2606210;54;20030;31
2021/12/17 08:32:09;;;;;;;19.10;6.00;;;5.00;99.90;;;;;;2605482;54;20421;31
2021/12/17 08:34:58;;;;;;;22.15;5.57;;;5.00;99.90;;;;;;2586669;54;20761;31
2021/12/17 08:37:33;;;;;;;11.93;4.75;;;5.00;99.90;;;;;;2587080;54;21000;31
2021/12/17 08:40:10;;;;;;;16.02;5.40;;;5.00;99.90;;;;;;2586622;54;21450;31
2021/12/17 08:42:54;;;;;;;9.40;4.20;;;5.00;99.90;;;;;;2607071;54;20029;31
2021/12/17 08:45:27;;;;;;;15.97;5.27;;;5.00;99.90;;;;;;2590745;54;20050;31
2021/12/17 08:48:23;;;;;;;18.80;5.18;;;5.00;99.90;;;;;;2587156;54;20105;31
2021/12/17 08:53:52;;;;;;;15.68;5.15;;;5.00;99.90;;;;;;2600325;54;21142;31
2021/12/17 08:56:31;;;;;;;16.98;5.97;;;5.00;99.90;;;;;;2594203;54;20023;31
2021/12/17 08:59:05;;;;;;;17.17;4.93;;;5.00;99.90;;;;;;2601907;54;20023;31
2021/12/17 09:01:49;;;;;;;18.88;5.05;;;5.00;99.90;;;;;;2592848;54;20995;31
2021/12/17 09:04:27;;;;;;;14.93;4.88;;;5.00;99.90;;;;;;2600675;54;19930;31
2021/12/17 09:07:03;;;;;;;16.67;5.32;;;5.00;99.90;;;;;;2604847;54;20028;31
2021/12/17 09:09:39;;;;;;;19.05;5.10;;;5.00;99.90;;;;;;2605232;54;20033;31
2021/12/17 09:12:27;;;;;;;14.13;4.70;;;5.00;99.90;;;;;;2597829;39;21341;31
2021/12/17 09:15:01;;;;;;;16.17;5.40;;;5.10;99.90;;;;;;2612600;46;20131;31
2021/12/17 09:18:00;;;;;;;17.00;4.15;;;5.10;99.90;;;;;;2586075;54;20082;31
2021/12/17 09:20:34;;;;;;;14.55;4.53;;;5.10;99.90;;;;;;2587200;54;20122;31
2021/12/17 09:23:07;;;;;;;13.75;5.05;;;5.10;99.90;;;;;;2593506;54;19934;31
2021/12/17 09:25:43;;;;;;;11.82;5.38;;;5.10;99.90;;;;;;2605091;54;20033;31
2021/12/17 09:28:22;;;;;;;14.60;5.10;;;5.10;99.90;;;;;;2586313;54;20022;31
2021/12/17 09:31:05;;;;;;;17.42;5.30;;;5.10;99.90;;;;;;2589270;54;20752;31
2021/12/17 09:33:38;;;;;;;13.25;5.03;;;5.10;99.90;;;;;;2586563;54;20731;31
2021/12/17 09:36:16;;;;;;;18.10;6.50;;;5.10;99.90;;;;;;2602132;54;20023;31
2021/12/17 09:38:49;;;;;;;13.43;4.90;;;5.10;99.90;;;;;;2586801;54;20822;31
2021/12/17 09:41:28;;;;;;;16.45;5.07;;;5.10;99.90;;;;;;2597965;39;22220;31
2021/12/17 09:44:01;;;;;;;14.93;5.03;;;5.10;99.90;;;;;;2585325;54;20026;31
2021/12/17 09:46:37;;;;;;;15.65;5.10;;;5.10;99.90;;;;;;2585640;54;19934;31
2021/12/17 09:49:14;;;;;;;18.73;4.90;;;5.10;99.90;;;;;;2617618;39;20862;-76
2021/12/17 09:51:52;;;;;;;15.55;5.00;;;5.10;99.90;;;;;;2626686;54;20045;-78
2021/12/17 09:54:24;;;;;;;15.70;5.35;;;5.10;99.90;;;;;;2622191;54;20026;-85
2021/12/17 09:56:58;;;;;;;11.63;5.03;;;5.10;99.90;;;;;;2631594;54;20049;-79
2021/12/17 09:59:30;;;;;;;12.48;4.25;;;5.10;99.90;;;;;;2609308;54;21603;-77
2021/12/17 10:02:03;;;;;;;10.55;5.05;;;5.20;99.90;;;;;;2600359;54;20070;31
2021/12/17 10:04:38;;;;;;;12.52;4.40;;;5.20;99.90;;;;;;2619094;54;20033;-75
2021/12/17 10:07:20;;;;;;;15.30;5.50;;;5.20;99.90;;;;;;2608450;54;20029;-78
2021/12/17 10:09:52;;;;;;;14.88;5.28;;;5.40;99.90;;;;;;2618205;54;20880;-79
2021/12/17 10:12:29;;;;;;;16.38;5.57;;;5.40;99.90;;;;;;2618278;54;20960;31
2021/12/17 10:15:10;;;;;;;15.23;5.43;;;5.40;99.90;;;;;;2619866;54;20183;-75
2021/12/17 10:17:52;;;;;;;11.90;4.75;;;5.40;99.90;;;;;;2585945;54;20030;31
2021/12/17 10:20:25;;;;;;;16.60;5.30;;;5.40;99.90;;;;;;2586640;54;20745;31
2021/12/17 10:22:59;;;;;;;14.70;4.78;;;5.40;99.90;;;;;;2586315;54;20858;31
2021/12/17 10:25:38;;;;;;;12.95;4.55;;;5.40;99.90;;;;;;2597196;54;20050;31
2021/12/17 10:28:14;;;;;;;15.88;4.40;;;5.40;99.90;;;;;;2590430;54;21021;31
2021/12/17 10:30:49;;;;;;;13.30;5.00;;;5.40;99.90;;;;;;2594882;54;20914;31
2021/12/17 10:33:24;;;;;;;16.50;5.60;;;5.40;99.90;;;;;;2587470;54;20138;31
2021/12/17 10:36:02;;;;;;;17.00;5.43;;;5.50;99.90;;;;;;2605459;54;20068;31
2021/12/17 10:38:36;;;;;;;16.52;5.85;;;5.50;99.90;;;;;;2608728;46;22167;31
2021/12/17 10:41:13;;;;;;;17.92;5.57;;;5.50;99.90;;;;;;2611733;54;20951;31
2021/12/17 10:43:55;;;;;;;16.92;6.03;;;5.60;99.90;;;;;;2620837;54;19995;31
2021/12/17 10:46:30;;;;;;;11.27;5.10;;;5.60;99.90;;;;;;2635501;46;20017;-79
2021/12/17 10:49:13;;;;;;;13.00;4.60;;;5.60;99.90;;;;;;2623104;54;20120;-76
2021/12/17 10:51:56;;;;;;;14.50;4.85;;;5.60;99.90;;;;;;2617517;54;20010;-73
2021/12/17 10:54:28;;;;;;;17.50;6.43;;;5.60;99.90;;;;;;2602845;54;20033;31
2021/12/17 10:57:01;;;;;;;17.90;6.35;;;5.60;99.90;;;;;;2618331;39;21034;31
2021/12/17 10:59:37;;;;;;;11.20;4.85;;;5.60;99.90;;;;;;2603418;54;20033;31
2021/12/17 11:02:11;;;;;;;17.17;4.72;;;5.60;99.90;;;;;;2595766;54;20045;-70
2021/12/17 11:04:46;;;;;;;13.07;4.78;;;5.60;99.90;;;;;;2631197;54;20015;-78
2021/12/17 11:07:19;;;;;;;15.95;5.00;;;5.60;99.90;;;;;;2631310;54;20032;-77
2021/12/17 11:09:53;;;;;;;24.58;10.82;;;5.60;99.90;;;;;;2630973;46;20071;-79
2021/12/17 11:12:37;;;;;;;10.60;4.47;;;5.60;99.90;;;;;;2630976;54;20010;-77
2021/12/17 11:15:18;;;;;;;13.00;4.22;;;5.60;99.90;;;;;;2652492;31;20687;-78
2021/12/17 11:17:57;;;;;;;18.05;5.05;;;5.60;99.90;;;;;;2598071;54;20027;-72
2021/12/17 11:20:33;;;;;;;10.80;4.00;;;5.60;99.90;;;;;;2630702;46;20866;31
2021/12/17 11:23:11;;;;;;;13.48;4.53;;;5.60;99.90;;;;;;2590045;54;21038;31
2021/12/17 11:25:48;;;;;;;11.27;4.22;;;5.60;99.90;;;;;;2606024;54;21636;31
2021/12/17 11:28:26;;;;;;;8.35;4.68;;;5.60;99.90;;;;;;2608254;54;20022;-72
2021/12/17 11:31:03;;;;;;;14.77;4.82;;;5.60;99.90;;;;;;2590995;54;20851;31
2021/12/17 11:33:38;;;;;;;11.80;3.83;;;5.60;99.90;;;;;;2608610;46;20022;31
2021/12/17 11:36:17;;;;;;;13.70;4.07;;;5.60;99.90;;;;;;2606955;46;20577;-77
2021/12/17 11:38:54;;;;;;;13.30;4.60;;;5.60;99.90;;;;;;2603927;54;20015;-74
2021/12/17 11:41:47;;;;;;;15.38;4.85;;;5.60;99.90;;;;;;2615189;54;20047;31
2021/12/17 11:44:28;;;;;;;13.45;4.50;;;5.50;99.90;;;;;;2631422;46;20034;-73
2021/12/17 11:47:06;;;;;;;8.48;3.88;;;5.60;99.90;;;;;;2629105;39;20705;31
2021/12/17 11:49:47;;;;;;;11.60;4.35;;;5.60;99.90;;;;;;2624895;39;22047;31
2021/12/17 11:52:43;;;;;;;10.82;3.60;;;5.50;99.90;;;;;;2615861;54;20026;31
2021/12/17 11:55:33;;;;;;;8.25;3.20;;;5.50;99.90;;;;;;2594787;54;20029;31
2021/12/17 11:58:09;;;;;;;9.27;4.07;;;5.60;99.90;;;;;;2613055;54;20124;31
2021/12/17 12:00:52;;;;;;;11.73;3.85;;;5.60;99.90;;;;;;2607076;54;20026;31
2021/12/17 12:03:31;;;;;;;11.00;3.10;;;5.60;99.90;;;;;;2615567;54;20015;31
2021/12/17 12:06:06;;;;;;;14.23;2.83;;;5.60;99.90;;;;;;2613697;54;20023;31
2021/12/17 12:08:47;;;;;;;10.85;2.42;;;5.60;99.90;;;;;;2607005;54;20952;31
2021/12/17 12:11:21;;;;;;;14.90;2.45;;;5.70;99.90;;;;;;2609559;54;19938;31
2021/12/17 12:13:55;;;;;;;10.82;2.97;;;5.60;99.90;;;;;;2587715;54;20117;31
2021/12/17 12:16:33;;;;;;;10.27;2.70;;;5.50;99.90;;;;;;2603487;54;20034;31
2021/12/17 12:19:12;;;;;;;8.00;2.55;;;5.50;99.90;;;;;;2609952;54;20026;31
2021/12/17 12:21:45;;;;;;;16.65;4.45;;;5.50;99.90;;;;;;2624007;46;20050;-73
2021/12/17 12:24:18;;;;;;;13.10;2.58;;;5.60;99.90;;;;;;2607193;54;20027;-77
2021/12/17 12:26:52;;;;;;;7.97;2.20;;;5.60;99.90;;;;;;2610525;54;20026;31
2021/12/17 12:29:25;;;;;;;8.95;2.40;;;5.70;99.90;;;;;;2607820;54;20955;31
2021/12/17 12:32:02;;;;;;;8.75;2.65;;;5.70;99.90;;;;;;2605608;54;20090;31
2021/12/17 12:34:41;;;;;;;12.88;3.17;;;5.60;99.90;;;;;;2593105;54;20769;31
2021/12/17 12:37:20;;;;;;;7.68;2.80;;;5.60;99.90;;;;;;2603618;54;20030;-77
2021/12/17 12:40:16;;;;;;;7.20;3.20;;;5.60;99.90;;;;;;2603282;54;20022;31
2021/12/17 12:42:50;;;;;;;9.90;2.58;;;5.50;99.90;;;;;;2598808;54;20881;31
2021/12/17 12:45:25;;;;;;;9.60;3.05;;;5.50;99.90;;;;;;2607007;54;20029;31
2021/12/17 12:48:01;;;;;;;14.25;3.10;;;5.40;99.90;;;;;;2600774;54;20049;31
2021/12/17 12:50:37;;;;;;;;;;;5.40;99.90;;;;;;2597968;47;20038;31
2021/12/17 12:53:12;;;;;;;6.55;3.15;;;5.50;99.90;;;;;;2601748;54;20064;-76
2021/12/17 12:55:48;;;;;;;13.20;3.37;;;5.50;99.90;;;;;;2605301;47;20027;31
2021/12/17 12:58:27;;;;;;;9.60;3.40;;;5.50;99.90;;;;;;2607527;54;20343;31
2021/12/17 13:01:02;;;;;;;7.47;2.60;;;5.50;99.90;;;;;;2603049;54;20107;31
2021/12/17 13:03:41;;;;;;;12.95;2.92;;;5.40;99.90;;;;;;2622461;54;20810;-73
2021/12/17 13:06:22;;;;;;;12.30;3.90;;;5.40;99.90;;;;;;2630196;47;20084;31
2021/12/17 13:08:56;;;;;;;9.70;3.45;;;5.40;99.90;;;;;;2612195;54;20030;31
2021/12/17 13:11:30;;;;;;;10.07;4.17;;;5.30;99.90;;;;;;2585908;54;20022;31
2021/12/17 13:14:17;;;;;;;9.98;3.80;;;5.30;99.90;;;;;;2603975;47;20794;31
2021/12/17 13:17:17;;;;;;;13.50;4.20;;;5.30;99.90;;;;;;2585743;54;20046;31
2021/12/17 13:22:58;;;;;;;13.52;4.78;;;5.30;99.90;;;;;;2585983;54;20026;31
2021/12/17 13:25:32;;;;;;;18.50;4.05;;;5.30;99.90;;;;;;2586122;54;20478;31
2021/12/17 13:28:06;;;;;;;15.15;4.60;;;5.20;99.90;;;;;;2586445;54;20057;31
2021/12/17 13:30:40;;;;;;;10.30;3.55;;;5.20;99.90;;;;;;2586544;54;20869;31
2021/12/17 13:33:15;;;;;;;12.15;4.65;;;5.10;99.90;;;;;;2586520;54;20054;31
2021/12/17 13:35:51;;;;;;;10.30;3.45;;;5.10;99.90;;;;;;2587239;54;20822;31
2021/12/17 13:38:33;;;;;;;13.07;3.33;;;5.10;99.90;;;;;;2586565;54;20799;31
2021/12/17 13:41:11;;;;;;;10.43;3.22;;;5.10;99.90;;;;;;2586557;54;20673;31
2021/12/17 13:43:44;;;;;;;9.90;2.97;;;5.10;99.90;;;;;;2684168;39;20351;31
2021/12/17 13:46:17;;;;;;;10.32;3.03;;;5.10;99.90;;;;;;2595365;46;20884;31
2021/12/17 13:48:50;;;;;;;12.20;3.20;;;5.00;99.90;;;;;;2586473;54;20036;31
2021/12/17 13:51:32;;;;;;;6.87;2.60;;;5.00;99.90;;;;;;2609075;46;21030;-76
2021/12/17 14:00:36;;;;;;;8.93;2.80;;;5.20;99.90;;;;;;2609393;54;20857;31
2021/12/17 14:03:13;;;;;;;8.27;2.67;;;5.10;99.90;;;;;;2607671;54;20884;31
2021/12/17 14:05:50;;;;;;;8.10;3.13;;;5.00;99.90;;;;;;2607441;54;21167;31
2021/12/17 14:08:25;;;;;;;10.27;3.08;;;5.00;99.90;;;;;;2607235;54;20033;31
2021/12/17 14:11:00;;;;;;;12.00;3.70;;;4.90;99.90;;;;;;2607568;54;20046;31
2021/12/17 14:13:42;;;;;;;12.00;4.57;;;4.90;99.90;;;;;;2607753;46;20026;31
2021/12/17 14:16:29;;;;;;;13.40;4.03;;;4.90;99.90;;;;;;2607534;54;20100;31
2021/12/17 14:19:07;;;;;;;8.88;4.47;;;4.80;99.90;;;;;;2607426;54;20152;31
2021/12/17 14:21:41;;;;;;;11.27;4.63;;;4.90;99.90;;;;;;2607831;54;20907;31
2021/12/17 14:27:20;;;;;;;12.98;4.75;;;4.80;99.90;;;;;;2607185;54;20038;31
2021/12/17 14:30:07;;;;;;;11.82;4.38;;;4.90;99.90;;;;;;2607379;54;20044;31
2021/12/17 14:32:46;;;;;;;11.00;4.40;;;4.80;99.90;;;;;;2607548;54;20042;31
2021/12/17 14:35:51;;;;;;;9.73;4.20;;;4.80;99.90;;;;;;2609227;46;20892;31
2021/12/17 14:38:45;;;;;;;15.55;5.65;;;4.80;99.90;;;;;;2607706;54;20274;31
2021/12/17 14:41:26;;;;;;;9.23;4.70;;;4.80;99.90;;;;;;2607183;54;20831;31
2021/12/17 14:44:05;;;;;;;15.10;6.32;;;4.80;99.90;;;;;;2607275;54;20781;31
2021/12/17 14:46:48;;;;;;;14.00;5.87;;;4.70;99.90;;;;;;2607534;54;20026;31
2021/12/17 14:57:18;;;;;;;19.70;7.10;;;4.70;99.90;;;;;;2607476;54;20907;31
2021/12/17 15:01:10;;;;;;;14.32;5.63;;;4.70;99.90;;;;;;2607133;54;20774;31
2021/12/17 15:03:44;;;;;;;12.60;5.20;;;4.70;99.90;;;;;;2613117;38;22443;31
2021/12/17 15:06:21;;;;;;;16.38;6.03;;;4.70;99.90;;;;;;2607170;54;20906;31
2021/12/17 15:08:57;;;;;;;16.35;6.25;;;4.70;99.90;;;;;;2607277;54;20131;31
2021/12/17 15:11:37;;;;;;;16.40;6.10;;;4.70;99.90;;;;;;2604656;54;20057;31
2021/12/17 15:14:11;;;;;;;15.40;5.82;;;4.60;99.90;;;;;;2603947;54;20041;31
2021/12/17 15:16:46;;;;;;;15.40;7.20;;;4.60;99.90;;;;;;2622172;46;20104;31
2021/12/17 15:19:20;;;;;;;13.30;6.35;;;4.60;99.90;;;;;;2613186;46;20961;31
2021/12/17 15:21:58;;;;;;;12.45;6.40;;;4.60;99.90;;;;;;2603699;54;20888;31
2021/12/17 15:24:44;;;;;;;16.13;6.40;;;4.70;99.90;;;;;;2603860;54;20830;31
2021/12/17 15:27:19;;;;;;;15.07;5.40;;;4.70;99.90;;;;;;2602847;54;20882;31
2021/12/17 15:29:53;;;;;;;15.00;6.03;;;4.60;99.90;;;;;;2603979;54;20044;31
2021/12/17 15:32:28;;;;;;;13.45;5.65;;;4.60;99.90;;;;;;2603795;54;20276;31
2021/12/17 15:35:03;;;;;;;19.20;6.85;;;4.60;99.90;;;;;;2617620;46;20088;31
2021/12/17 15:37:40;;;;;;;16.83;6.55;;;4.60;99.90;;;;;;2603831;54;20821;31
2021/12/17 15:40:15;;;;;;;14.18;5.72;;;4.60;99.90;;;;;;2603923;54;20026;31
2021/12/17 15:42:50;;;;;;;18.20;6.43;;;4.60;99.90;;;;;;2603795;54;20042;31
2021/12/17 15:45:25;;;;;;;17.55;5.70;;;4.60;99.90;;;;;;2603896;54;20061;31
2021/12/17 15:47:59;;;;;;;14.95;6.20;;;4.60;99.90;;;;;;2603705;54;20196;31
2021/12/17 15:50:43;;;;;;;14.00;5.43;;;4.60;99.90;;;;;;2622525;46;20050;31
2021/12/17 15:53:20;;;;;;;12.83;5.43;;;4.60;99.90;;;;;;2603479;54;20129;31
2021/12/17 15:55:55;;;;;;;15.30;6.63;;;4.60;99.90;;;;;;2603571;54;20053;31
2021/12/17 15:58:27;;;;;;;13.50;5.85;;;4.50;99.90;;;;;;2702262;39;21159;31
2021/12/17 16:01:01;;;;;;;13.80;6.85;;;4.50;99.90;;;;;;2603484;54;20029;31
2021/12/17 16:03:36;;;;;;;15.33;6.50;;;4.60;99.90;;;;;;2603748;54;20052;31
2021/12/17 16:06:15;;;;;;;13.90;6.55;;;4.60;99.90;;;;;;2610284;39;20877;31
2021/12/17 16:08:56;;;;;;;18.17;7.63;;;4.50;99.90;;;;;;2603734;54;20026;31
2021/12/17 16:11:50;;;;;;;20.77;6.50;;;4.60;99.90;;;;;;2603519;54;20042;31
2021/12/17 16:22:46;;;;;;;17.50;7.35;;;4.40;99.90;;;;;;2603456;54;20030;31
2021/12/17 16:25:22;;;;;;;15.75;7.20;;;4.40;99.90;;;;;;2610794;39;22360;31
2021/12/17 16:27:54;;;;;;;;;;;4.30;99.90;;;;;;2603953;54;20865;31
2021/12/17 16:30:30;;;;;;;20.85;7.95;;;4.30;99.90;;;;;;2603729;54;19942;31
2021/12/17 16:33:05;;;;;;;22.38;9.07;;;4.20;99.90;;;;;;2602723;54;19949;31
2021/12/17 16:35:37;;;;;;;18.38;9.38;;;4.30;99.90;;;;;;2610664;39;22167;31
2021/12/17 16:38:10;;;;;;;19.83;10.13;;;4.20;99.90;;;;;;2603551;54;20053;31
2021/12/17 16:40:47;;;;;;;19.23;8.23;;;4.20;99.90;;;;;;2603633;54;20048;31
2021/12/17 16:43:22;;;;;;;14.38;8.23;;;4.20;99.90;;;;;;2603669;54;20824;31
2021/12/17 16:46:13;;;;;;;16.43;7.37;;;4.20;99.90;;;;;;2603745;54;20919;31
2021/12/17 16:48:48;;;;;;;18.85;7.25;;;4.20;99.90;;;;;;2603591;54;20324;31
2021/12/17 16:51:23;;;;;;;12.93;6.97;;;4.20;99.90;;;;;;2607417;54;21205;-79